sensor_id;sensor_type;location;lat;lon;timestamp;pressure;altitude;pressure_sealevel;temperature;humidity
74708;BME280;63360;50.104;8.074;2023-06-22T00:01:06;97377.03;;;18.82;100.00
74708;BME280;63360;50.104;8.074;2023-06-22T00:03:32;97384.63;;;18.84;100.00
74708;BME280;63360;50.104;8.074;2023-06-22T00:05:59;97402.72;;;18.85;100.00
74708;BME280;63360;50.104;8.074;2023-06-22T00:08:25;97399.25;;;18.81;100.00
74708;BME280;63360;50.104;8.074;2023-06-22T00:10:52;97399.31;;;18.85;100.00
74708;BME280;63360;50.104;8.074;2023-06-22T00:13:18;97405.34;;;18.85;100.00
74708;BME280;63360;50.104;8.074;2023-06-22T00:15:45;97408.34;;;18.84;100.00
74708;BME280;63360;50.104;8.074;2023-06-22T00:18:11;97411.38;;;18.86;100.00
74708;BME280;63360;50.104;8.074;2023-06-22T00:20:39;97404.94;;;18.83;100.00
74708;BME280;63360;50.104;8.074;2023-06-22T00:23:07;97405.75;;;18.87;100.00
74708;BME280;63360;50.104;8.074;2023-06-22T00:25:38;97399.66;;;18.83;100.00
74708;BME280;63360;50.104;8.074;2023-06-22T00:28:06;97409.44;;;18.83;100.00
74708;BME280;63360;50.104;8.074;2023-06-22T00:30:34;97400.00;;;18.82;100.00
74708;BME280;63360;50.104;8.074;2023-06-22T00:33:01;97413.13;;;18.78;100.00
74708;BME280;63360;50.104;8.074;2023-06-22T00:35:28;97435.16;;;18.66;100.00
74708;BME280;63360;50.104;8.074;2023-06-22T00:37:59;97446.66;;;18.58;100.00
74708;BME280;63360;50.104;8.074;2023-06-22T00:40:31;97453.28;;;18.49;100.00
74708;BME280;63360;50.104;8.074;2023-06-22T00:42:59;97463.38;;;18.47;100.00
74708;BME280;63360;50.104;8.074;2023-06-22T00:45:26;97462.91;;;18.41;100.00
74708;BME280;63360;50.104;8.074;2023-06-22T00:47:54;97465.09;;;18.39;100.00
74708;BME280;63360;50.104;8.074;2023-06-22T00:50:24;97467.25;;;18.34;100.00
74708;BME280;63360;50.104;8.074;2023-06-22T00:52:53;97471.34;;;18.31;100.00
74708;BME280;63360;50.104;8.074;2023-06-22T00:55:20;97472.06;;;18.28;100.00
74708;BME280;63360;50.104;8.074;2023-06-22T00:57:48;97476.81;;;18.23;100.00
74708;BME280;63360;50.104;8.074;2023-06-22T01:00:15;97473.75;;;18.21;100.00
74708;BME280;63360;50.104;8.074;2023-06-22T01:02:44;97460.47;;;18.13;100.00
74708;BME280;63360;50.104;8.074;2023-06-22T01:05:17;97458.47;;;18.07;100.00
74708;BME280;63360;50.104;8.074;2023-06-22T01:08:12;97435.75;;;17.99;100.00
74708;BME280;63360;50.104;8.074;2023-06-22T01:16:00;97341.31;;;17.78;100.00
74708;BME280;63360;50.104;8.074;2023-06-22T01:18:30;97348.78;;;17.76;100.00
74708;BME280;63360;50.104;8.074;2023-06-22T01:20:57;97343.81;;;17.71;100.00
74708;BME280;63360;50.104;8.074;2023-06-22T01:23:56;97371.50;;;17.65;100.00
74708;BME280;63360;50.104;8.074;2023-06-22T01:26:38;97395.38;;;17.76;100.00
74708;BME280;63360;50.104;8.074;2023-06-22T01:29:10;97395.66;;;17.71;100.00
74708;BME280;63360;50.104;8.074;2023-06-22T01:31:39;97397.03;;;17.65;100.00
74708;BME280;63360;50.104;8.074;2023-06-22T01:34:08;97408.00;;;17.67;100.00
74708;BME280;63360;50.104;8.074;2023-06-22T01:36:36;97401.38;;;17.57;100.00
74708;BME280;63360;50.104;8.074;2023-06-22T01:39:05;97403.34;;;17.60;100.00
74708;BME280;63360;50.104;8.074;2023-06-22T01:41:34;97409.44;;;17.64;100.00
74708;BME280;63360;50.104;8.074;2023-06-22T01:44:04;97394.63;;;17.56;100.00
74708;BME280;63360;50.104;8.074;2023-06-22T01:46:32;97380.34;;;17.57;100.00
74708;BME280;63360;50.104;8.074;2023-06-22T01:48:58;97365.69;;;17.56;100.00
74708;BME280;63360;50.104;8.074;2023-06-22T01:51:25;97354.66;;;17.50;100.00
74708;BME280;63360;50.104;8.074;2023-06-22T01:53:51;97360.06;;;17.58;100.00
74708;BME280;63360;50.104;8.074;2023-06-22T01:56:18;97356.69;;;17.57;100.00
74708;BME280;63360;50.104;8.074;2023-06-22T01:59:02;97335.09;;;17.51;100.00
74708;BME280;63360;50.104;8.074;2023-06-22T02:01:37;97321.13;;;17.47;100.00
74708;BME280;63360;50.104;8.074;2023-06-22T02:04:20;97330.97;;;17.50;100.00
74708;BME280;63360;50.104;8.074;2023-06-22T02:06:51;97343.78;;;17.52;100.00
74708;BME280;63360;50.104;8.074;2023-06-22T02:09:22;97356.63;;;17.53;100.00
74708;BME280;63360;50.104;8.074;2023-06-22T02:11:50;97355.84;;;17.53;100.00
74708;BME280;63360;50.104;8.074;2023-06-22T02:14:21;97364.50;;;17.53;100.00
74708;BME280;63360;50.104;8.074;2023-06-22T02:16:48;97372.19;;;17.62;100.00
74708;BME280;63360;50.104;8.074;2023-06-22T02:19:15;97378.13;;;17.59;100.00
74708;BME280;63360;50.104;8.074;2023-06-22T02:21:42;97385.69;;;17.61;100.00
74708;BME280;63360;50.104;8.074;2023-06-22T02:24:08;97387.81;;;17.55;100.00
74708;BME280;63360;50.104;8.074;2023-06-22T02:26:35;97404.88;;;17.61;100.00
74708;BME280;63360;50.104;8.074;2023-06-22T02:29:04;97407.22;;;17.66;100.00
74708;BME280;63360;50.104;8.074;2023-06-22T02:31:31;97392.22;;;17.67;100.00
74708;BME280;63360;50.104;8.074;2023-06-22T02:33:58;97346.72;;;17.66;100.00
74708;BME280;63360;50.104;8.074;2023-06-22T02:36:25;97327.19;;;17.67;100.00
74708;BME280;63360;50.104;8.074;2023-06-22T02:38:54;97316.63;;;17.64;100.00
74708;BME280;63360;50.104;8.074;2023-06-22T02:41:22;97315.44;;;17.61;100.00
74708;BME280;63360;50.104;8.074;2023-06-22T02:43:49;97325.19;;;17.61;100.00
74708;BME280;63360;50.104;8.074;2023-06-22T02:46:15;97330.44;;;17.61;100.00
74708;BME280;63360;50.104;8.074;2023-06-22T02:48:42;97329.69;;;17.60;100.00
74708;BME280;63360;50.104;8.074;2023-06-22T02:51:12;97318.34;;;17.56;100.00
74708;BME280;63360;50.104;8.074;2023-06-22T02:53:38;97313.81;;;17.56;100.00
74708;BME280;63360;50.104;8.074;2023-06-22T02:56:05;97319.94;;;17.61;100.00
74708;BME280;63360;50.104;8.074;2023-06-22T02:58:32;97313.50;;;17.58;100.00
74708;BME280;63360;50.104;8.074;2023-06-22T03:01:06;97316.03;;;17.54;100.00
74708;BME280;63360;50.104;8.074;2023-06-22T03:03:32;97308.91;;;17.55;100.00
74708;BME280;63360;50.104;8.074;2023-06-22T03:05:59;97310.09;;;17.58;100.00
74708;BME280;63360;50.104;8.074;2023-06-22T03:08:28;97311.28;;;17.60;100.00
74708;BME280;63360;50.104;8.074;2023-06-22T03:10:55;97303.75;;;17.59;100.00
74708;BME280;63360;50.104;8.074;2023-06-22T03:13:21;97303.78;;;17.62;100.00
74708;BME280;63360;50.104;8.074;2023-06-22T03:15:48;97306.84;;;17.64;100.00
74708;BME280;63360;50.104;8.074;2023-06-22T03:18:14;97292.44;;;17.58;100.00
74708;BME280;63360;50.104;8.074;2023-06-22T03:20:42;97309.06;;;17.62;100.00
74708;BME280;63360;50.104;8.074;2023-06-22T03:23:08;97293.13;;;17.55;100.00
74708;BME280;63360;50.104;8.074;2023-06-22T03:25:35;97290.16;;;17.56;100.00
74708;BME280;63360;50.104;8.074;2023-06-22T03:28:01;97299.16;;;17.55;100.00
74708;BME280;63360;50.104;8.074;2023-06-22T03:30:28;97294.72;;;17.60;100.00
74708;BME280;63360;50.104;8.074;2023-06-22T03:32:55;97300.75;;;17.60;100.00
74708;BME280;63360;50.104;8.074;2023-06-22T03:35:21;97293.63;;;17.61;100.00
74708;BME280;63360;50.104;8.074;2023-06-22T03:37:49;97292.09;;;17.60;100.00
74708;BME280;63360;50.104;8.074;2023-06-22T03:40:15;97278.53;;;17.58;100.00
74708;BME280;63360;50.104;8.074;2023-06-22T03:42:41;97289.41;;;17.56;100.00
74708;BME280;63360;50.104;8.074;2023-06-22T03:45:08;97284.16;;;17.56;100.00
74708;BME280;63360;50.104;8.074;2023-06-22T03:47:35;97286.34;;;17.54;100.00
74708;BME280;63360;50.104;8.074;2023-06-22T03:50:02;97280.34;;;17.53;100.00
74708;BME280;63360;50.104;8.074;2023-06-22T03:52:30;97282.97;;;17.53;100.00
74708;BME280;63360;50.104;8.074;2023-06-22T03:54:56;97295.91;;;17.62;100.00
74708;BME280;63360;50.104;8.074;2023-06-22T03:57:23;97285.72;;;17.61;100.00
74708;BME280;63360;50.104;8.074;2023-06-22T03:59:49;97286.13;;;17.63;100.00
74708;BME280;63360;50.104;8.074;2023-06-22T04:02:16;97286.78;;;17.56;100.00
74708;BME280;63360;50.104;8.074;2023-06-22T04:04:42;97292.03;;;17.56;100.00
74708;BME280;63360;50.104;8.074;2023-06-22T04:07:09;97295.09;;;17.58;100.00
74708;BME280;63360;50.104;8.074;2023-06-22T04:09:35;97302.63;;;17.60;100.00
74708;BME280;63360;50.104;8.074;2023-06-22T04:12:02;97299.56;;;17.58;100.00
74708;BME280;63360;50.104;8.074;2023-06-22T04:14:29;97299.56;;;17.58;100.00
74708;BME280;63360;50.104;8.074;2023-06-22T04:16:55;97306.84;;;17.64;100.00
74708;BME280;63360;50.104;8.074;2023-06-22T04:19:22;97314.03;;;17.67;100.00
74708;BME280;63360;50.104;8.074;2023-06-22T04:21:48;97299.66;;;17.61;100.00
74708;BME280;63360;50.104;8.074;2023-06-22T04:24:15;97309.63;;;17.71;100.00
74708;BME280;63360;50.104;8.074;2023-06-22T04:26:41;97307.66;;;17.68;100.00
74708;BME280;63360;50.104;8.074;2023-06-22T04:29:12;97305.72;;;17.65;100.00
74708;BME280;63360;50.104;8.074;2023-06-22T04:31:39;97320.91;;;17.72;100.00
74708;BME280;63360;50.104;8.074;2023-06-22T04:34:06;97311.41;;;17.67;100.00
74708;BME280;63360;50.104;8.074;2023-06-22T04:39:05;97325.41;;;17.71;100.00
74708;BME280;63360;50.104;8.074;2023-06-22T04:41:32;97322.84;;;17.75;100.00
74708;BME280;63360;50.104;8.074;2023-06-22T04:44:15;97324.34;;;17.76;100.00
74708;BME280;63360;50.104;8.074;2023-06-22T04:46:52;97317.63;;;17.78;100.00
74708;BME280;63360;50.104;8.074;2023-06-22T04:49:27;97305.13;;;17.72;100.00
74708;BME280;63360;50.104;8.074;2023-06-22T04:52:00;97293.25;;;17.62;100.00
74708;BME280;63360;50.104;8.074;2023-06-22T04:54:27;97306.63;;;17.73;100.00
74708;BME280;63360;50.104;8.074;2023-06-22T04:56:54;97309.63;;;17.71;100.00
74708;BME280;63360;50.104;8.074;2023-06-22T04:59:23;97301.16;;;17.62;100.00
74708;BME280;63360;50.104;8.074;2023-06-22T05:01:58;97296.75;;;17.66;100.00
74708;BME280;63360;50.104;8.074;2023-06-22T05:04:26;97296.88;;;17.73;100.00
74708;BME280;63360;50.104;8.074;2023-06-22T05:06:54;97305.16;;;17.75;100.00
74708;BME280;63360;50.104;8.074;2023-06-22T05:09:20;97301.84;;;17.78;100.00
74708;BME280;63360;50.104;8.074;2023-06-22T05:11:47;97311.41;;;17.86;100.00
74708;BME280;63360;50.104;8.074;2023-06-22T05:14:14;97296.72;;;17.85;100.00
74708;BME280;63360;50.104;8.074;2023-06-22T05:16:44;97294.22;;;17.92;100.00
74708;BME280;63360;50.104;8.074;2023-06-22T05:19:11;97284.19;;;17.98;100.00
74708;BME280;63360;50.104;8.074;2023-06-22T05:21:38;97300.50;;;18.07;100.00
74708;BME280;63360;50.104;8.074;2023-06-22T05:24:05;97293.78;;;18.09;100.00
74708;BME280;63360;50.104;8.074;2023-06-22T05:26:33;97291.16;;;18.09;100.00
74708;BME280;63360;50.104;8.074;2023-06-22T05:29:01;97284.94;;;18.21;100.00
74708;BME280;63360;50.104;8.074;2023-06-22T05:31:29;97284.41;;;18.35;100.00
74708;BME280;63360;50.104;8.074;2023-06-22T05:33:56;97279.91;;;18.58;100.00
74708;BME280;63360;50.104;8.074;2023-06-22T05:36:22;97274.22;;;18.79;100.00
74708;BME280;63360;50.104;8.074;2023-06-22T05:38:52;97274.63;;;19.07;100.00
74708;BME280;63360;50.104;8.074;2023-06-22T05:41:19;97272.91;;;19.21;100.00
74708;BME280;63360;50.104;8.074;2023-06-22T05:43:46;97281.56;;;19.48;100.00
74708;BME280;63360;50.104;8.074;2023-06-22T05:46:12;97283.72;;;19.72;100.00
74708;BME280;63360;50.104;8.074;2023-06-22T05:48:39;97286.22;;;19.95;100.00
74708;BME280;63360;50.104;8.074;2023-06-22T05:51:05;97280.69;;;20.07;100.00
74708;BME280;63360;50.104;8.074;2023-06-22T05:53:31;97279.41;;;20.27;100.00
74708;BME280;63360;50.104;8.074;2023-06-22T05:55:58;97285.94;;;20.40;100.00
74708;BME280;63360;50.104;8.074;2023-06-22T05:58:24;97288.38;;;20.67;100.00
74708;BME280;63360;50.104;8.074;2023-06-22T06:00:51;97274.16;;;20.85;100.00
74708;BME280;63360;50.104;8.074;2023-06-22T06:03:17;97283.78;;;21.11;100.00
74708;BME280;63360;50.104;8.074;2023-06-22T06:05:44;97284.97;;;21.21;100.00
74708;BME280;63360;50.104;8.074;2023-06-22T06:08:11;97282.06;;;21.47;100.00
74708;BME280;63360;50.104;8.074;2023-06-22T06:10:38;97287.03;;;21.62;100.00
74708;BME280;63360;50.104;8.074;2023-06-22T06:13:05;97281.38;;;21.60;100.00
74708;BME280;63360;50.104;8.074;2023-06-22T06:15:34;97287.41;;;21.57;100.00
74708;BME280;63360;50.104;8.074;2023-06-22T06:18:01;97292.44;;;21.91;100.00
74708;BME280;63360;50.104;8.074;2023-06-22T06:20:31;97283.03;;;22.18;100.00
74708;BME280;63360;50.104;8.074;2023-06-22T06:22:58;97289.84;;;22.58;100.00
74708;BME280;63360;50.104;8.074;2023-06-22T06:25:25;97292.53;;;22.82;100.00
74708;BME280;63360;50.104;8.074;2023-06-22T06:27:52;97279.63;;;22.84;97.87
74708;BME280;63360;50.104;8.074;2023-06-22T06:30:20;97286.78;;;23.12;96.53
74708;BME280;63360;50.104;8.074;2023-06-22T06:32:49;97283.34;;;23.26;94.63
74708;BME280;63360;50.104;8.074;2023-06-22T06:35:15;97267.38;;;23.33;93.28
74708;BME280;63360;50.104;8.074;2023-06-22T06:37:48;97270.34;;;23.56;92.34
74708;BME280;63360;50.104;8.074;2023-06-22T06:40:15;97269.09;;;23.82;91.22
74708;BME280;63360;50.104;8.074;2023-06-22T06:42:44;97269.75;;;23.96;89.71
74708;BME280;63360;50.104;8.074;2023-06-22T06:45:16;97266.38;;;23.89;88.01
74708;BME280;63360;50.104;8.074;2023-06-22T06:47:43;97255.06;;;23.78;88.52
74708;BME280;63360;50.104;8.074;2023-06-22T06:50:10;97270.81;;;24.06;89.05
74708;BME280;63360;50.104;8.074;2023-06-22T06:52:37;97271.28;;;23.97;86.25
74708;BME280;63360;50.104;8.074;2023-06-22T06:55:05;97279.81;;;24.30;87.01
74708;BME280;63360;50.104;8.074;2023-06-22T06:57:38;97271.03;;;24.33;86.21
74708;BME280;63360;50.104;8.074;2023-06-22T07:00:06;97260.66;;;24.49;85.04
74708;BME280;63360;50.104;8.074;2023-06-22T07:02:36;97257.53;;;24.61;83.09
74708;BME280;63360;50.104;8.074;2023-06-22T07:05:02;97260.69;;;24.45;81.95
74708;BME280;63360;50.104;8.074;2023-06-22T07:07:31;97274.06;;;24.83;82.65
74708;BME280;63360;50.104;8.074;2023-06-22T07:09:59;97275.78;;;25.00;81.59
74708;BME280;63360;50.104;8.074;2023-06-22T07:12:26;97270.13;;;24.94;79.10
74708;BME280;63360;50.104;8.074;2023-06-22T07:14:53;97277.69;;;24.99;79.77
74708;BME280;63360;50.104;8.074;2023-06-22T07:17:19;97275.19;;;25.22;75.80
74708;BME280;63360;50.104;8.074;2023-06-22T07:19:46;97278.53;;;25.26;78.29
74708;BME280;63360;50.104;8.074;2023-06-22T07:22:12;97264.88;;;25.58;77.73
74708;BME280;63360;50.104;8.074;2023-06-22T07:24:39;97267.88;;;25.26;74.19
74708;BME280;63360;50.104;8.074;2023-06-22T07:27:07;97281.28;;;24.82;73.44
74708;BME280;63360;50.104;8.074;2023-06-22T07:29:37;97274.63;;;24.56;75.07
74708;BME280;63360;50.104;8.074;2023-06-22T07:32:06;97260.88;;;24.24;77.11
74708;BME280;63360;50.104;8.074;2023-06-22T07:34:32;97264.31;;;24.18;76.13
74708;BME280;63360;50.104;8.074;2023-06-22T07:37:00;97250.88;;;24.35;78.58
74708;BME280;63360;50.104;8.074;2023-06-22T07:39:27;97243.72;;;24.29;78.46
74708;BME280;63360;50.104;8.074;2023-06-22T07:41:54;97238.94;;;24.06;78.13
74708;BME280;63360;50.104;8.074;2023-06-22T07:44:21;97245.78;;;24.03;78.49
74708;BME280;63360;50.104;8.074;2023-06-22T07:46:47;97239.09;;;23.81;79.19
74708;BME280;63360;50.104;8.074;2023-06-22T07:49:16;97239.13;;;23.78;77.53
74708;BME280;63360;50.104;8.074;2023-06-22T07:51:43;97236.09;;;23.76;80.09
74708;BME280;63360;50.104;8.074;2023-06-22T07:54:09;97229.25;;;23.78;82.26
74708;BME280;63360;50.104;8.074;2023-06-22T07:56:37;97220.50;;;23.81;79.06
74708;BME280;63360;50.104;8.074;2023-06-22T07:59:03;97215.19;;;23.81;81.20
74708;BME280;63360;50.104;8.074;2023-06-22T08:01:30;97222.41;;;23.84;78.68
74708;BME280;63360;50.104;8.074;2023-06-22T08:03:56;97236.75;;;23.90;78.34
74708;BME280;63360;50.104;8.074;2023-06-22T08:06:23;97224.59;;;23.93;77.34
74708;BME280;63360;50.104;8.074;2023-06-22T08:08:49;97207.50;;;23.94;77.44
74708;BME280;63360;50.104;8.074;2023-06-22T08:11:19;97221.09;;;24.06;78.25
74708;BME280;63360;50.104;8.074;2023-06-22T08:13:45;97208.22;;;24.01;77.40
74708;BME280;63360;50.104;8.074;2023-06-22T08:16:12;97203.66;;;24.02;77.89
74708;BME280;63360;50.104;8.074;2023-06-22T08:18:38;97205.13;;;24.14;78.67
74708;BME280;63360;50.104;8.074;2023-06-22T08:21:05;97203.44;;;24.30;78.26
74708;BME280;63360;50.104;8.074;2023-06-22T08:23:31;97202.34;;;24.28;74.87
74708;BME280;63360;50.104;8.074;2023-06-22T08:25:58;97204.53;;;24.40;75.38
74708;BME280;63360;50.104;8.074;2023-06-22T08:28:24;97205.19;;;24.51;77.12
74708;BME280;63360;50.104;8.074;2023-06-22T08:30:51;97203.31;;;24.48;75.72
74708;BME280;63360;50.104;8.074;2023-06-22T08:33:17;97200.00;;;24.37;72.58
74708;BME280;63360;50.104;8.074;2023-06-22T08:35:55;97198.13;;;24.34;72.54
74708;BME280;63360;50.104;8.074;2023-06-22T08:38:21;97193.22;;;24.29;73.22
74708;BME280;63360;50.104;8.074;2023-06-22T08:40:48;97202.66;;;24.37;73.46
74708;BME280;63360;50.104;8.074;2023-06-22T08:43:14;97201.88;;;24.36;73.46
74708;BME280;63360;50.104;8.074;2023-06-22T08:45:40;97190.38;;;24.46;74.25
74708;BME280;63360;50.104;8.074;2023-06-22T08:48:08;97184.03;;;24.37;70.84
74708;BME280;63360;50.104;8.074;2023-06-22T08:50:35;97176.72;;;24.48;74.21
74708;BME280;63360;50.104;8.074;2023-06-22T08:53:01;97173.56;;;24.56;72.78
74708;BME280;63360;50.104;8.074;2023-06-22T08:55:28;97173.31;;;24.47;71.74
74708;BME280;63360;50.104;8.074;2023-06-22T08:57:54;97175.53;;;24.52;72.84
74708;BME280;63360;50.104;8.074;2023-06-22T09:00:21;97169.22;;;24.36;70.56
74708;BME280;63360;50.104;8.074;2023-06-22T09:02:48;97168.47;;;24.35;72.07
74708;BME280;63360;50.104;8.074;2023-06-22T09:05:15;97169.03;;;24.16;69.74
74708;BME280;63360;50.104;8.074;2023-06-22T09:07:42;97158.47;;;24.05;74.04
74708;BME280;63360;50.104;8.074;2023-06-22T09:10:09;97158.44;;;24.13;73.97
74708;BME280;63360;50.104;8.074;2023-06-22T09:12:36;97152.72;;;24.14;73.95
74708;BME280;63360;50.104;8.074;2023-06-22T09:15:04;97156.78;;;24.26;75.35
74708;BME280;63360;50.104;8.074;2023-06-22T09:17:37;97154.28;;;24.49;75.69
74708;BME280;63360;50.104;8.074;2023-06-22T09:20:04;97155.78;;;24.53;71.44
74708;BME280;63360;50.104;8.074;2023-06-22T09:22:33;97159.09;;;24.61;73.51
74708;BME280;63360;50.104;8.074;2023-06-22T09:24:59;97154.94;;;24.56;73.49
74708;BME280;63360;50.104;8.074;2023-06-22T09:27:26;97153.13;;;24.50;72.91
74708;BME280;63360;50.104;8.074;2023-06-22T09:29:52;97158.63;;;24.32;72.63
74708;BME280;63360;50.104;8.074;2023-06-22T09:32:19;97159.00;;;24.31;74.84
74708;BME280;63360;50.104;8.074;2023-06-22T09:34:45;97153.72;;;24.27;76.56
74708;BME280;63360;50.104;8.074;2023-06-22T09:37:12;97146.22;;;24.19;75.81
74708;BME280;63360;50.104;8.074;2023-06-22T09:39:38;97145.91;;;24.09;74.58
74708;BME280;63360;50.104;8.074;2023-06-22T09:42:05;97146.28;;;24.11;73.97
74708;BME280;63360;50.104;8.074;2023-06-22T09:44:32;97137.28;;;23.95;75.72
74708;BME280;63360;50.104;8.074;2023-06-22T09:46:58;97134.97;;;24.00;76.38
74708;BME280;63360;50.104;8.074;2023-06-22T09:49:25;97124.66;;;24.09;75.44
74708;BME280;63360;50.104;8.074;2023-06-22T09:52:11;97127.31;;;24.09;75.22
74708;BME280;63360;50.104;8.074;2023-06-22T09:54:38;97104.91;;;24.10;76.57
74708;BME280;63360;50.104;8.074;2023-06-22T09:57:04;97113.13;;;24.27;76.04
74708;BME280;63360;50.104;8.074;2023-06-22T09:59:31;97106.63;;;24.28;74.76
74708;BME280;63360;50.104;8.074;2023-06-22T10:01:57;97106.28;;;24.59;77.32
74708;BME280;63360;50.104;8.074;2023-06-22T10:04:24;97098.56;;;24.72;74.55
74708;BME280;63360;50.104;8.074;2023-06-22T10:06:52;97096.94;;;24.82;73.72
74708;BME280;63360;50.104;8.074;2023-06-22T10:09:18;97088.97;;;24.82;71.66
74708;BME280;63360;50.104;8.074;2023-06-22T10:11:45;97099.13;;;24.90;74.06
74708;BME280;63360;50.104;8.074;2023-06-22T10:14:11;97104.47;;;24.87;72.33
74708;BME280;63360;50.104;8.074;2023-06-22T10:16:38;97098.38;;;24.90;72.02
74708;BME280;63360;50.104;8.074;2023-06-22T10:19:04;97093.94;;;24.80;73.94
74708;BME280;63360;50.104;8.074;2023-06-22T10:21:31;97096.72;;;24.99;73.40
74708;BME280;63360;50.104;8.074;2023-06-22T10:23:57;97089.84;;;25.02;71.79
74708;BME280;63360;50.104;8.074;2023-06-22T10:26:25;97092.00;;;25.10;72.41
74708;BME280;63360;50.104;8.074;2023-06-22T10:28:55;97088.88;;;25.15;72.52
74708;BME280;63360;50.104;8.074;2023-06-22T10:31:41;97083.22;;;25.13;71.80
74708;BME280;63360;50.104;8.074;2023-06-22T10:34:07;97086.00;;;25.06;71.56
74708;BME280;63360;50.104;8.074;2023-06-22T10:36:34;97080.69;;;25.03;71.35
74708;BME280;63360;50.104;8.074;2023-06-22T10:39:00;97064.38;;;25.01;72.25
74708;BME280;63360;50.104;8.074;2023-06-22T10:41:28;97058.19;;;25.07;72.73
74708;BME280;63360;50.104;8.074;2023-06-22T10:43:56;97047.09;;;25.12;72.26
74708;BME280;63360;50.104;8.074;2023-06-22T10:46:26;97040.50;;;25.20;71.73
74708;BME280;63360;50.104;8.074;2023-06-22T10:48:53;97045.41;;;25.25;72.60
74708;BME280;63360;50.104;8.074;2023-06-22T10:51:25;97048.63;;;25.37;70.16
74708;BME280;63360;50.104;8.074;2023-06-22T10:53:52;97032.81;;;25.26;68.93
74708;BME280;63360;50.104;8.074;2023-06-22T10:56:18;97030.16;;;25.26;69.35
74708;BME280;63360;50.104;8.074;2023-06-22T10:58:45;97036.25;;;25.26;67.91
74708;BME280;63360;50.104;8.074;2023-06-22T11:01:12;97020.69;;;25.25;69.24
74708;BME280;63360;50.104;8.074;2023-06-22T11:03:59;97029.91;;;25.44;69.10
74708;BME280;63360;50.104;8.074;2023-06-22T11:06:25;97032.91;;;25.46;68.85
74708;BME280;63360;50.104;8.074;2023-06-22T11:08:52;97029.13;;;25.47;68.51
74708;BME280;63360;50.104;8.074;2023-06-22T11:11:37;97008.03;;;25.56;68.17
74708;BME280;63360;50.104;8.074;2023-06-22T11:14:03;97007.00;;;25.73;68.30
74708;BME280;63360;50.104;8.074;2023-06-22T11:16:30;97010.91;;;25.88;68.06
74708;BME280;63360;50.104;8.074;2023-06-22T11:18:56;97019.19;;;25.94;66.42
74708;BME280;63360;50.104;8.074;2023-06-22T11:21:23;97016.09;;;25.95;66.74
74708;BME280;63360;50.104;8.074;2023-06-22T11:23:49;97008.81;;;25.99;67.33
74708;BME280;63360;50.104;8.074;2023-06-22T11:26:16;97004.72;;;25.95;65.65
74708;BME280;63360;50.104;8.074;2023-06-22T11:28:43;96994.84;;;26.11;65.64
74708;BME280;63360;50.104;8.074;2023-06-22T11:31:09;97005.69;;;26.24;65.65
74708;BME280;63360;50.104;8.074;2023-06-22T11:33:51;96987.31;;;26.29;66.54
74708;BME280;63360;50.104;8.074;2023-06-22T11:36:18;96987.50;;;26.38;65.60
74708;BME280;63360;50.104;8.074;2023-06-22T11:38:45;96987.69;;;26.28;66.07
74708;BME280;63360;50.104;8.074;2023-06-22T11:41:11;96988.53;;;26.25;68.61
74708;BME280;63360;50.104;8.074;2023-06-22T11:43:38;96991.06;;;26.32;62.76
74708;BME280;63360;50.104;8.074;2023-06-22T11:46:04;96994.56;;;26.29;65.01
74708;BME280;63360;50.104;8.074;2023-06-22T11:48:31;97005.97;;;26.29;62.66
74708;BME280;63360;50.104;8.074;2023-06-22T11:50:58;96995.31;;;26.29;59.86
74708;BME280;63360;50.104;8.074;2023-06-22T11:53:26;96995.31;;;26.29;61.81
74708;BME280;63360;50.104;8.074;2023-06-22T11:55:53;96987.28;;;26.49;61.49
74708;BME280;63360;50.104;8.074;2023-06-22T11:58:21;96986.31;;;26.75;59.45
74708;BME280;63360;50.104;8.074;2023-06-22T12:00:47;96978.75;;;26.74;56.61
74708;BME280;63360;50.104;8.074;2023-06-22T12:03:18;96986.00;;;26.73;59.66
74708;BME280;63360;50.104;8.074;2023-06-22T12:05:44;96978.97;;;26.63;62.54
74708;BME280;63360;50.104;8.074;2023-06-22T12:08:11;96980.56;;;26.61;61.20
74708;BME280;63360;50.104;8.074;2023-06-22T12:10:38;96985.25;;;26.73;58.36
74708;BME280;63360;50.104;8.074;2023-06-22T12:13:04;96977.66;;;26.71;59.84
74708;BME280;63360;50.104;8.074;2023-06-22T12:15:31;96978.88;;;26.67;58.03
74708;BME280;63360;50.104;8.074;2023-06-22T12:17:57;96980.94;;;26.79;57.61
74708;BME280;63360;50.104;8.074;2023-06-22T12:20:24;96984.13;;;26.90;57.91
74708;BME280;63360;50.104;8.074;2023-06-22T12:22:51;96966.84;;;26.94;56.86
74708;BME280;63360;50.104;8.074;2023-06-22T12:25:18;96957.59;;;26.99;58.41
74708;BME280;63360;50.104;8.074;2023-06-22T12:27:45;96970.69;;;27.09;58.05
74708;BME280;63360;50.104;8.074;2023-06-22T12:30:11;96948.94;;;26.95;58.16
74708;BME280;63360;50.104;8.074;2023-06-22T12:32:38;96955.94;;;27.05;57.67
74708;BME280;63360;50.104;8.074;2023-06-22T12:35:05;96941.75;;;26.92;57.71
74708;BME280;63360;50.104;8.074;2023-06-22T12:37:33;96948.16;;;26.94;57.40
74708;BME280;63360;50.104;8.074;2023-06-22T12:40:00;96942.41;;;27.12;58.30
74708;BME280;63360;50.104;8.074;2023-06-22T12:42:26;96935.66;;;27.07;56.55
74708;BME280;63360;50.104;8.074;2023-06-22T12:44:54;96925.31;;;27.09;57.15
74708;BME280;63360;50.104;8.074;2023-06-22T12:47:21;96923.13;;;27.21;58.38
74708;BME280;63360;50.104;8.074;2023-06-22T12:49:48;96916.78;;;27.15;57.36
74708;BME280;63360;50.104;8.074;2023-06-22T12:52:14;96920.63;;;27.30;57.58
74708;BME280;63360;50.104;8.074;2023-06-22T12:54:41;96924.88;;;27.43;57.23
74708;BME280;63360;50.104;8.074;2023-06-22T12:57:20;96917.94;;;27.46;56.05
74708;BME280;63360;50.104;8.074;2023-06-22T12:59:46;96919.88;;;27.45;57.51
74708;BME280;63360;50.104;8.074;2023-06-22T13:02:13;96916.94;;;27.40;59.83
74708;BME280;63360;50.104;8.074;2023-06-22T13:04:39;96894.47;;;27.53;57.63
74708;BME280;63360;50.104;8.074;2023-06-22T13:07:06;96895.03;;;27.61;57.14